Clara — V2CC9 — position and weather

sailwx.info

Track history (hours):
 
Tides and Currents Weather Stations Pressure Air Temp Water Temp Dewpoint Dewpoint Depression Visibility Wind Speed Wind Dir Waves Ship Positions

Clara

Last reported at 2014-Aug-01 09:33 UTC. Time now 2014-Aug-01 09:54 UTC.
Position N 35°55' W 005°18'.

Length 108 m; draft 6.3 m.

Type: Cargo ship. MMSI: 304983000.

Date/timePositionNaut miles runAvg speedWind from/ knotsBaromVisibWave heightAir tempDewpointWater temp
2014-Aug-01 09:33N 35°55' W 005°18'1 1.4
2014-Aug-01 08:31N 35°54' W 005°18'0 0.0
2014-Aug-01 07:31N 35°54' W 005°18'0 0.0
2014-Aug-01 06:31N 35°54' W 005°18'0 0.0
2014-Aug-01 05:31N 35°54' W 005°18'1 0.8
2014-Aug-01 04:33N 35°54' W 005°19'2 1.7
2014-Aug-01 03:33N 35°56' W 005°19'1 0.5
2014-Aug-01 02:34N 35°56' W 005°18'109 2.4
2014-Jul-30 05:14N 37°11' W 006°56'0 0.0
2014-Jul-30 04:32N 37°11' W 006°56'0 0.0
2014-Jul-30 03:32N 37°11' W 006°56'0 0.0
2014-Jul-30 02:32N 37°11' W 006°56'19 1.0
2014-Jul-29 06:33N 36°52' W 006°52'1411.0
2014-Jul-29 05:19N 36°38' W 006°54'2011.6
2014-Jul-29 03:33N 36°18' W 006°59'180 4.1
2014-Jul-27 08:04N 33°30' W 008°13'189 3.9
2014-Jul-25 08:16N 36°24' W 009°42'1810.6
2014-Jul-25 06:31N 36°42' W 009°47'1210.6
2014-Jul-25 05:25N 36°53' W 009°46'910.6
2014-Jul-25 04:33N 37°02' W 009°43'1210.4
2014-Jul-25 03:26N 37°13' W 009°39'1411.1
2014-Jul-25 02:09N 37°28' W 009°37'711.1
2014-Jul-25 01:33N 37°34' W 009°36'1110.9
2014-Jul-25 00:33N 37°45' W 009°34'1111.0
2014-Jul-24 23:33N 37°56' W 009°32'1110.8
2014-Jul-24 22:33N 38°06' W 009°30'1110.9
2014-Jul-24 21:33N 38°17' W 009°27'1111.0
2014-Jul-24 20:33N 38°28' W 009°25'1111.3
2014-Jul-24 19:32N 38°39' W 009°20'7 7.2
2014-Jul-24 18:33N 38°41' W 009°12'0 0.2
2014-Jul-24 17:31N 38°41' W 009°12'0 0.0
2014-Jul-24 13:03N 38°41' W 009°12'1 1.5
2014-Jul-24 12:24N 38°41' W 009°13'  
Track history (hours):
 
Tides and Currents Weather Stations Pressure Air Temp Water Temp Dewpoint Dewpoint Depression Visibility Wind Speed Wind Dir Waves Ship Positions

Clara

Last reported at 2014-Aug-01 09:33 UTC. Time now 2014-Aug-01 09:54 UTC.
Position N 35°55' W 005°18'.

Length 108 m; draft 6.3 m.

Type: Cargo ship. MMSI: 304983000.

Date/timePositionNaut miles runAvg speedWind from/ knotsBaromVisibWave heightAir tempDewpointWater temp
2014-Aug-01 09:33N 35°55' W 005°18'1 1.4
2014-Aug-01 08:31N 35°54' W 005°18'0 0.0
2014-Aug-01 07:31N 35°54' W 005°18'0 0.0
2014-Aug-01 06:31N 35°54' W 005°18'0 0.0
2014-Aug-01 05:31N 35°54' W 005°18'1 0.8
2014-Aug-01 04:33N 35°54' W 005°19'2 1.7
2014-Aug-01 03:33N 35°56' W 005°19'1 0.5
2014-Aug-01 02:34N 35°56' W 005°18'109 2.4
2014-Jul-30 05:14N 37°11' W 006°56'0 0.0
2014-Jul-30 04:32N 37°11' W 006°56'0 0.0
2014-Jul-30 03:32N 37°11' W 006°56'0 0.0
2014-Jul-30 02:32N 37°11' W 006°56'19 1.0
2014-Jul-29 06:33N 36°52' W 006°52'1411.0
2014-Jul-29 05:19N 36°38' W 006°54'2011.6
2014-Jul-29 03:33N 36°18' W 006°59'180 4.1
2014-Jul-27 08:04N 33°30' W 008°13'189 3.9
2014-Jul-25 08:16N 36°24' W 009°42'1810.6
2014-Jul-25 06:31N 36°42' W 009°47'1210.6
2014-Jul-25 05:25N 36°53' W 009°46'910.6
2014-Jul-25 04:33N 37°02' W 009°43'1210.4
2014-Jul-25 03:26N 37°13' W 009°39'1411.1
2014-Jul-25 02:09N 37°28' W 009°37'711.1
2014-Jul-25 01:33N 37°34' W 009°36'1110.9
2014-Jul-25 00:33N 37°45' W 009°34'1111.0
2014-Jul-24 23:33N 37°56' W 009°32'1110.8
2014-Jul-24 22:33N 38°06' W 009°30'1110.9
2014-Jul-24 21:33N 38°17' W 009°27'1111.0
2014-Jul-24 20:33N 38°28' W 009°25'1111.3
2014-Jul-24 19:32N 38°39' W 009°20'7 7.2
2014-Jul-24 18:33N 38°41' W 009°12'0 0.2
2014-Jul-24 17:31N 38°41' W 009°12'0 0.0
2014-Jul-24 13:03N 38°41' W 009°12'1 1.5
2014-Jul-24 12:24N 38°41' W 009°13'  

Dump ship's entire track history